Observation data for Dimmitt on 02/14/2020      Previous  Date  Next       Current Mesonet Observations  Soil Data  Daily Summary Page  Observations in Plain Language
KDMS 140600Z 13015KT M04/M06 A3024 RMK A01 T10431061  RH  087%=      5-min Rain = 0
KDMS 140605Z 13014KT M04/M06 A3024 RMK A01 T10431061  RH  088%=      5-min Rain = 0
KDMS 140610Z 13013KT M04/M06 A3024 RMK A01 T10431060  RH  088%=      5-min Rain = 0
KDMS 140615Z 13015KT M04/M06 A3024 RMK A01 T10431061  RH  088%=      5-min Rain = 0
KDMS 140620Z 13015KT M04/M06 A3024 RMK A01 T10431061  RH  087%=      5-min Rain = 0
KDMS 140625Z 13014KT M04/M06 A3024 RMK A01 T10431061  RH  087%=      5-min Rain = 0
KDMS 140630Z 13013KT M04/M06 A3024 RMK A01 T10431060  RH  088%=      5-min Rain = 0
KDMS 140635Z 13015KT M04/M06 A3024 RMK A01 T10441060  RH  088%=      5-min Rain = 0
KDMS 140640Z 14013KT M04/M06 A3024 RMK A01 T10431059  RH  089%=      5-min Rain = 0
KDMS 140645Z 14012KT M04/M06 A3024 RMK A01 T10431058  RH  090%=      5-min Rain = 0
KDMS 140650Z 14014KT M04/M06 A3024 RMK A01 T10421056  RH  090%=      5-min Rain = 0
KDMS 140655Z 14015KT M04/M06 A3024 RMK A01 T10421057  RH  090%=      5-min Rain = 0
KDMS 140700Z 14014G19KT M04/M06 A3025 RMK A01 T10411057  RH  089%=      5-min Rain = 0
KDMS 140705Z 14014KT M04/M06 A3025 RMK A01 T10411056  RH  090%=      5-min Rain = 0
KDMS 140710Z 14015KT M04/M06 A3025 RMK A01 T10431058  RH  089%=      5-min Rain = 0
KDMS 140715Z 15014KT M04/M06 A3025 RMK A01 T10431058  RH  089%=      5-min Rain = 0
KDMS 140720Z 14015KT M04/M06 A3025 RMK A01 T10431059  RH  089%=      5-min Rain = 0
KDMS 140725Z 14015KT M04/M06 A3025 RMK A01 T10441060  RH  089%=      5-min Rain = 0
KDMS 140730Z 14014KT M04/M06 A3025 RMK A01 T10441059  RH  090%=      5-min Rain = 0
KDMS 140735Z 14014KT M04/M06 A3025 RMK A01 T10441059  RH  090%=      5-min Rain = 0
KDMS 140740Z 14012KT M04/M06 A3025 RMK A01 T10441058  RH  090%=      5-min Rain = 0
KDMS 140745Z 14013KT M05/M06 A3025 RMK A01 T10451058  RH  091%=      5-min Rain = 0
KDMS 140750Z 14011KT M04/M06 A3026 RMK A01 T10441057  RH  091%=      5-min Rain = 0
KDMS 140755Z 13012KT M05/M06 A3026 RMK A01 T10451058  RH  091%=      5-min Rain = 0
KDMS 140800Z 13011KT M05/M06 A3026 RMK A01 T10461058  RH  091%=      5-min Rain = 0
KDMS 140805Z 13012KT M05/M06 A3026 RMK A01 T10461059  RH  091%=      5-min Rain = 0
KDMS 140810Z 13012KT M05/M06 A3026 RMK A01 T10461058  RH  091%=      5-min Rain = 0
KDMS 140815Z 14012KT M05/M06 A3026 RMK A01 T10461058  RH  092%=      5-min Rain = 0
KDMS 140820Z 14011KT M05/M06 A3026 RMK A01 T10451057  RH  092%=      5-min Rain = 0
KDMS 140825Z 14013KT M05/M06 A3026 RMK A01 T10451056  RH  092%=      5-min Rain = 0
KDMS 140830Z 14013KT M05/M06 A3026 RMK A01 T10451055  RH  092%=      5-min Rain = 0
KDMS 140835Z 14010KT M05/M06 A3026 RMK A01 T10461057  RH  092%=      5-min Rain = 0
KDMS 140840Z 14011KT M05/M06 A3026 RMK A01 T10461056  RH  093%=      5-min Rain = 0
KDMS 140845Z 14011KT M05/M06 A3026 RMK A01 T10461056  RH  093%=      5-min Rain = 0
KDMS 140850Z 14011KT M05/M06 A3025 RMK A01 T10461055  RH  093%=      5-min Rain = 0
KDMS 140855Z 14012KT M05/M06 A3025 RMK A01 T10461055  RH  093%=      5-min Rain = 0
KDMS 140900Z 15012KT M04/M05 A3025 RMK A01 T10441053  RH  094%=      5-min Rain = 0
KDMS 140905Z 15012KT M04/M05 A3025 RMK A01 T10441053  RH  093%=      5-min Rain = 0
KDMS 140910Z 15012KT M04/M05 A3025 RMK A01 T10441053  RH  093%=      5-min Rain = 0
KDMS 140915Z 16013KT M04/M05 A3025 RMK A01 T10431054  RH  093%=      5-min Rain = 0
KDMS 140920Z 16013KT M04/M05 A3025 RMK A01 T10441054  RH  093%=      5-min Rain = 0
KDMS 140925Z 15013KT M04/M06 A3025 RMK A01 T10441055  RH  092%=      5-min Rain = 0
KDMS 140930Z 16012KT M04/M05 A3024 RMK A01 T10431054  RH  092%=      5-min Rain = 0
KDMS 140935Z 16014KT M04/M06 A3024 RMK A01 T10431056  RH  092%=      5-min Rain = 0
KDMS 140940Z 15013KT M04/M06 A3025 RMK A01 T10441057  RH  091%=      5-min Rain = 0
KDMS 140945Z 16014KT M04/M06 A3025 RMK A01 T10441057  RH  091%=      5-min Rain = 0
KDMS 140950Z 16013KT M04/M06 A3025 RMK A01 T10441057  RH  091%=      5-min Rain = 0
KDMS 140955Z 16013KT M04/M06 A3025 RMK A01 T10441056  RH  092%=      5-min Rain = 0
KDMS 141000Z 16013KT M04/M06 A3025 RMK A01 T10441056  RH  091%=      5-min Rain = 0
KDMS 141005Z 16011KT M04/M06 A3025 RMK A01 T10441056  RH  092%=      5-min Rain = 0
KDMS 141010Z 16012KT M04/M06 A3025 RMK A01 T10441056  RH  092%=      5-min Rain = 0
KDMS 141015Z 16011KT M04/M06 A3024 RMK A01 T10441055  RH  092%=      5-min Rain = 0
KDMS 141020Z 16014KT M04/M05 A3024 RMK A01 T10441054  RH  093%=      5-min Rain = 0
KDMS 141025Z 16013KT M04/M05 A3024 RMK A01 T10431053  RH  093%=      5-min Rain = 0
KDMS 141030Z 16015KT M04/M05 A3024 RMK A01 T10431052  RH  094%=      5-min Rain = 0
KDMS 141035Z 17016KT M04/M05 A3024 RMK A01 T10441054  RH  094%=      5-min Rain = 0
KDMS 141040Z 17016KT M05/M05 A3024 RMK A01 T10451054  RH  093%=      5-min Rain = 0
KDMS 141045Z 17014KT M05/M05 A3024 RMK A01 T10451054  RH  093%=      5-min Rain = 0
KDMS 141050Z 17015KT M04/M05 A3024 RMK A01 T10441054  RH  093%=      5-min Rain = 0
KDMS 141055Z 16015KT M05/M06 A3024 RMK A01 T10451055  RH  093%=      5-min Rain = 0
KDMS 141100Z 17016KT M05/M06 A3024 RMK A01 T10451056  RH  092%=      5-min Rain = 0
KDMS 141105Z 17015KT M05/M06 A3024 RMK A01 T10461056  RH  092%=      5-min Rain = 0
KDMS 141110Z 17015KT M05/M06 A3024 RMK A01 T10451056  RH  092%=      5-min Rain = 0
KDMS 141115Z 17015KT M05/M06 A3024 RMK A01 T10451056  RH  093%=      5-min Rain = 0
KDMS 141120Z 17017KT M05/M06 A3023 RMK A01 T10461057  RH  092%=      5-min Rain = 0
KDMS 141125Z 17014KT M05/M06 A3023 RMK A01 T10451056  RH  093%=      5-min Rain = 0
KDMS 141130Z 17015KT M05/M06 A3023 RMK A01 T10461056  RH  093%=      5-min Rain = 0
KDMS 141135Z 17013KT M05/M06 A3024 RMK A01 T10461055  RH  093%=      5-min Rain = 0
KDMS 141140Z 17013KT M05/M06 A3024 RMK A01 T10461056  RH  093%=      5-min Rain = 0
KDMS 141145Z 16013KT M05/M06 A3024 RMK A01 T10461055  RH  093%=      5-min Rain = 0
KDMS 141150Z 16012KT M05/M06 A3024 RMK A01 T10461055  RH  093%=      5-min Rain = 0
KDMS 141155Z 16014KT M05/M06 A3024 RMK A01 T10461056  RH  093%=      5-min Rain = 0
KDMS 141200Z 16014KT M05/M06 A3024 RMK A01 T10461055  RH  094%=      5-min Rain = 0
KDMS 141205Z 16014KT M05/M05 A3024 RMK A01 T10461054  RH  094%=      5-min Rain = 0
KDMS 141210Z 16016KT M05/M05 A3024 RMK A01 T10461053  RH  095%=      5-min Rain = 0
KDMS 141215Z 16016KT M05/M05 A3024 RMK A01 T10461053  RH  095%=      5-min Rain = 0
KDMS 141220Z 17016KT M05/M05 A3024 RMK A01 T10461052  RH  096%=      5-min Rain = 0
KDMS 141225Z 17015KT M05/M05 A3024 RMK A01 T10461051  RH  097%=      5-min Rain = 0
KDMS 141230Z 17015G20KT M05/M05 A3024 RMK A01 T10461050  RH  098%=      5-min Rain = 0
KDMS 141235Z 17015KT M05/M05 A3024 RMK A01 T10461049  RH  098%=      5-min Rain = 0
KDMS 141240Z 17014KT M05/M05 A3023 RMK A01 T10461049  RH  098%=      5-min Rain = 0
KDMS 141245Z 17013KT M05/M05 A3024 RMK A01 T10461048  RH  098%=      5-min Rain = 0
KDMS 141250Z 17015KT M05/M05 A3024 RMK A01 T10471049  RH  098%=      5-min Rain = 0
KDMS 141255Z 17015KT M05/M05 A3024 RMK A01 T10461049  RH  099%=      5-min Rain = 0
KDMS 141300Z 17015KT M05/M05 A3024 RMK A01 T10461048  RH  099%=      5-min Rain = 0
KDMS 141305Z 17015KT M05/M05 A3024 RMK A01 T10461049  RH  099%=      5-min Rain = 0
KDMS 141310Z 17014KT M05/M05 A3024 RMK A01 T10461048  RH  099%=      5-min Rain = 0
KDMS 141315Z 17015KT M05/M05 A3024 RMK A01 T10461048  RH  099%=      5-min Rain = 0
KDMS 141320Z 17014KT M05/M05 A3024 RMK A01 T10451048  RH  099%=      5-min Rain = 0
KDMS 141325Z 17013KT M05/M05 A3024 RMK A01 T10451047  RH  099%=      5-min Rain = 0
KDMS 141330Z 17013KT M04/M05 A3024 RMK A01 T10441047  RH  099%=      5-min Rain = 0
KDMS 141335Z 17013KT M04/M05 A3024 RMK A01 T10441046  RH  099%=      5-min Rain = 0
KDMS 141340Z 17014KT M05/M05 A3024 RMK A01 T10451048  RH  099%=      5-min Rain = 0
KDMS 141345Z 17014KT M05/M05 A3024 RMK A01 T10451048  RH  099%=      5-min Rain = 0
KDMS 141350Z 17014KT M05/M05 A3025 RMK A01 T10451048  RH  099%=      5-min Rain = 0
KDMS 141355Z 17013KT M05/M05 A3025 RMK A01 T10451047  RH  099%=      5-min Rain = 0
KDMS 141400Z 17014KT M05/M05 A3025 RMK A01 T10451047  RH  099%=      5-min Rain = 0
KDMS 141405Z 17015KT M05/M05 A3025 RMK A01 T10451047  RH  099%=      5-min Rain = 0
KDMS 141410Z 18014KT M05/M05 A3025 RMK A01 T10451047  RH  099%=      5-min Rain = 0
KDMS 141415Z 18015KT M05/M05 A3025 RMK A01 T10451047  RH  099%=      5-min Rain = 0
KDMS 141420Z 18014KT M04/M05 A3025 RMK A01 T10441046  RH  099%=      5-min Rain = 0
KDMS 141425Z 18015KT M04/M05 A3025 RMK A01 T10441046  RH  099%=      5-min Rain = 0
KDMS 141430Z 18014KT M04/M05 A3025 RMK A01 T10431045  RH  099%=      5-min Rain = 0
KDMS 141435Z 19014KT M04/M04 A3025 RMK A01 T10421044  RH  099%=      5-min Rain = 0
KDMS 141440Z 18013KT M04/M04 A3025 RMK A01 T10421044  RH  099%=      5-min Rain = 0
KDMS 141445Z 19012KT M04/M04 A3025 RMK A01 T10411043  RH  099%=      5-min Rain = 0
KDMS 141450Z 19012KT M04/M04 A3025 RMK A01 T10401042  RH  099%=      5-min Rain = 0
KDMS 141455Z 19013KT M04/M04 A3025 RMK A01 T10401042  RH  099%=      5-min Rain = 0
KDMS 141500Z 18011KT M04/M04 A3025 RMK A01 T10381040  RH  099%=      5-min Rain = 0
KDMS 141505Z 19011KT M04/M04 A3025 RMK A01 T10371039  RH  099%=      5-min Rain = 0
KDMS 141510Z 18012KT M04/M04 A3025 RMK A01 T10351037  RH  099%=      5-min Rain = 0
KDMS 141515Z 19013KT M04/M04 A3026 RMK A01 T10351036  RH  099%=      5-min Rain = 0
KDMS 141520Z 19011G17KT M03/M04 A3026 RMK A01 T10341036  RH  099%=      5-min Rain = 0
KDMS 141525Z 19012KT M03/M03 A3026 RMK A01 T10331034  RH  099%=      5-min Rain = 0
KDMS 141530Z 19013KT M03/M03 A3026 RMK A01 T10321033  RH  100%=      5-min Rain = 0
KDMS 141535Z 19013KT M03/M03 A3026 RMK A01 T10311032  RH  100%=      5-min Rain = 0
KDMS 141540Z 19013KT M03/M03 A3025 RMK A01 T10291030  RH  100%=      5-min Rain = 0
KDMS 141545Z 19013KT M03/M03 A3025 RMK A01 T10281029  RH  100%=      5-min Rain = 0
KDMS 141550Z 20013KT M03/M03 A3025 RMK A01 T10271028  RH  100%=      5-min Rain = 0
KDMS 141555Z 20013KT M03/M03 A3025 RMK A01 T10261027  RH  100%=      5-min Rain = 0
KDMS 141600Z 20016KT M03/M03 A3025 RMK A01 T10251026  RH  100%=      5-min Rain = 0
KDMS 141605Z 20015KT M02/M03 A3025 RMK A01 T10241025  RH  100%=      5-min Rain = 0
KDMS 141610Z 20015G20KT M02/M02 A3025 RMK A01 T10231024  RH  100%=      5-min Rain = 0
KDMS 141615Z 19014G19KT M02/M02 A3025 RMK A01 T10221023  RH  100%=      5-min Rain = 0
KDMS 141620Z 19015KT M02/M02 A3025 RMK A01 T10211023  RH  100%=      5-min Rain = 0
KDMS 141625Z 20016G21KT M02/M02 A3024 RMK A01 T10211022  RH  100%=      5-min Rain = 0
KDMS 141630Z 20016KT M02/M02 A3024 RMK A01 T10211022  RH  100%=      5-min Rain = 0
KDMS 141635Z 20016KT M02/M02 A3024 RMK A01 T10201021  RH  100%=      5-min Rain = 0
KDMS 141640Z 20017KT M02/M02 A3024 RMK A01 T10201021  RH  100%=      5-min Rain = 0
KDMS 141645Z 20016KT M02/M02 A3024 RMK A01 T10201021  RH  100%=      5-min Rain = 0
KDMS 141650Z 20015G20KT M02/M02 A3024 RMK A01 T10191020  RH  100%=      5-min Rain = 0
KDMS 141655Z 20015KT M02/M02 A3023 RMK A01 T10191020  RH  100%=      5-min Rain = 0
KDMS 141700Z 20016KT M02/M02 A3023 RMK A01 T10181019  RH  100%=      5-min Rain = 0
KDMS 141705Z 20016KT M02/M02 A3023 RMK A01 T10181019  RH  100%=      5-min Rain = 0
KDMS 141710Z 20015KT M02/M02 A3024 RMK A01 T10171018  RH  100%=      5-min Rain = 0
KDMS 141715Z 20014KT M02/M02 A3024 RMK A01 T10161017  RH  100%=      5-min Rain = 0
KDMS 141720Z 20015G20KT M02/M02 A3023 RMK A01 T10151016  RH  100%=      5-min Rain = 0
KDMS 141725Z 20016KT M02/M02 A3023 RMK A01 T10151016  RH  100%=      5-min Rain = 0
KDMS 141730Z 20015KT M01/M02 A3023 RMK A01 T10141015  RH  100%=      5-min Rain = 0
KDMS 141735Z 20016KT M01/M02 A3023 RMK A01 T10131015  RH  100%=      5-min Rain = 0
KDMS 141740Z 20013KT M01/M01 A3023 RMK A01 T10131014  RH  100%=      5-min Rain = 0
KDMS 141745Z 20014G19KT M01/M01 A3023 RMK A01 T10121014  RH  100%=      5-min Rain = 0
KDMS 141750Z 20012G17KT M01/M01 A3022 RMK A01 T10121014  RH  100%=      5-min Rain = 0
KDMS 141755Z 20012KT M01/M01 A3022 RMK A01 T10111012  RH  100%=      5-min Rain = 0
KDMS 141800Z 21014KT M01/M01 A3022 RMK A01 T10101012  RH  100%=      5-min Rain = 0
KDMS 141805Z 20013KT M01/M01 A3022 RMK A01 T10101011  RH  100%=      5-min Rain = 0
KDMS 141810Z 19014KT M01/M01 A3021 RMK A01 T10101011  RH  100%=      5-min Rain = 0
KDMS 141815Z 20013KT M01/M01 A3021 RMK A01 T10101011  RH  100%=      5-min Rain = 0
KDMS 141820Z 21013KT M01/M01 A3021 RMK A01 T10081010  RH  100%=      5-min Rain = 0
KDMS 141825Z 21015KT M01/M01 A3021 RMK A01 T10081009  RH  100%=      5-min Rain = 0
KDMS 141830Z 21015KT M01/M01 A302 RMK A01 T10071008  RH  100%=      5-min Rain = 0
KDMS 141835Z 20015KT M01/M01 A3019 RMK A01 T10051007  RH  100%=      5-min Rain = 0
KDMS 141840Z 20017G22KT M01/M01 A3019 RMK A01 T10061007  RH  100%=      5-min Rain = 0
KDMS 141845Z 20018KT M01/M01 A302 RMK A01 T10051007  RH  100%=      5-min Rain = 0
KDMS 141850Z 21016G21KT M01/M01 A302 RMK A01 T10051006  RH  100%=      5-min Rain = 0
KDMS 141855Z 21016G21KT M00/M01 A302 RMK A01 T10031006  RH  099%=      5-min Rain = 0
KDMS 141900Z 21015G20KT M00/M01 A3019 RMK A01 T10021006  RH  098%=      5-min Rain = 0
KDMS 141905Z 21016KT M00/M01 A3019 RMK A01 T10011006  RH  098%=      5-min Rain = 0
KDMS 141910Z 21015KT 00/01 A3018 RMK A01 T00-000-6  RH  097%=      5-min Rain = 0
KDMS 141915Z 21015G22KT 00/01 A3018 RMK A01 T000000-6  RH  096%=      5-min Rain = 0
KDMS 141920Z 21015KT 00/M01 A3017 RMK A01 T00011006  RH  096%=      5-min Rain = 0
KDMS 141925Z 20015KT 00/M01 A3017 RMK A01 T00011006  RH  096%=      5-min Rain = 0
KDMS 141930Z 20016G22KT 00/M01 A3017 RMK A01 T00021006  RH  096%=      5-min Rain = 0
KDMS 141935Z 20016G22KT 00/M01 A3017 RMK A01 T00021006  RH  095%=      5-min Rain = 0
KDMS 141940Z 21016G21KT 00/M00 A3016 RMK A01 T00041004  RH  095%=      5-min Rain = 0
KDMS 141945Z 21018G24KT 01/M00 A3016 RMK A01 T00051004  RH  095%=      5-min Rain = 0
KDMS 141950Z 21019KT 00/M01 A3016 RMK A01 T00041006  RH  095%=      5-min Rain = 0
KDMS 141955Z 20018KT 00/M01 A3015 RMK A01 T00041005  RH  095%=      5-min Rain = 0
KDMS 142000Z 20018KT 01/M00 A3015 RMK A01 T00051004  RH  095%=      5-min Rain = 0
KDMS 142005Z 20016KT 01/M00 A3015 RMK A01 T00071002  RH  095%=      5-min Rain = 0
KDMS 142010Z 20017KT 01/M00 A3014 RMK A01 T00071003  RH  094%=      5-min Rain = 0
KDMS 142015Z 20017KT 01/M00 A3014 RMK A01 T00071002  RH  095%=      5-min Rain = 0
KDMS 142020Z 20015KT 01/M00 A3014 RMK A01 T00091002  RH  094%=      5-min Rain = 0
KDMS 142025Z 20017G22KT 01/M00 A3014 RMK A01 T00091001  RH  094%=      5-min Rain = 0
KDMS 142030Z 20016KT 01/M00 A3013 RMK A01 T00091001  RH  094%=      5-min Rain = 0
KDMS 142035Z 20014KT 01/M00 A3013 RMK A01 T00101001  RH  094%=      5-min Rain = 0
KDMS 142040Z 19016KT 01/M00 A3013 RMK A01 T00111001  RH  093%=      5-min Rain = 0
KDMS 142045Z 20016KT 01/00 A3013 RMK A01 T00130001  RH  093%=      5-min Rain = 0
KDMS 142050Z 20016G21KT 01/M00 A3013 RMK A01 T00131001  RH  092%=      5-min Rain = 0
KDMS 142055Z 19018KT 01/M00 A3013 RMK A01 T00121001  RH  092%=      5-min Rain = 0
KDMS 142100Z 20017KT 01/M00 A3012 RMK A01 T00131001  RH  092%=      5-min Rain = 0
KDMS 142105Z 20016G21KT 01/00 A3012 RMK A01 T001400-0  RH  091%=      5-min Rain = 0
KDMS 142110Z 19018KT 01/M00 A3012 RMK A01 T00141001  RH  091%=      5-min Rain = 0
KDMS 142115Z 20016G22KT 02/M00 A3012 RMK A01 T00151001  RH  090%=      5-min Rain = 0
KDMS 142120Z 19015KT 02/00 A3011 RMK A01 T00160001  RH  091%=      5-min Rain = 0
KDMS 142125Z 19017KT 02/00 A3011 RMK A01 T00160000  RH  091%=      5-min Rain = 0
KDMS 142130Z 20016G21KT 02/00 A3011 RMK A01 T00170000  RH  090%=      5-min Rain = 0
KDMS 142135Z 19016G21KT 02/00 A3011 RMK A01 T00170001  RH  090%=      5-min Rain = 0
KDMS 142140Z 19016KT 02/00 A3011 RMK A01 T00180002  RH  090%=      5-min Rain = 0
KDMS 142145Z 18017KT 02/00 A301 RMK A01 T00180002  RH  090%=      5-min Rain = 0
KDMS 142150Z 19017KT 02/00 A301 RMK A01 T00170002  RH  091%=      5-min Rain = 0
KDMS 142155Z 19019G25KT 02/00 A301 RMK A01 T00170002  RH  091%=      5-min Rain = 0
KDMS 142200Z 19019KT 02/00 A301 RMK A01 T00160001  RH  091%=      5-min Rain = 0
KDMS 142205Z 19020G25KT 02/00 A301 RMK A01 T00170002  RH  091%=      5-min Rain = 0
KDMS 142210Z 19019G25KT 02/00 A3009 RMK A01 T00180001  RH  090%=      5-min Rain = 0
KDMS 142215Z 19020KT 02/00 A3009 RMK A01 T00180002  RH  090%=      5-min Rain = 0
KDMS 142220Z 19021KT 02/00 A3009 RMK A01 T00170003  RH  091%=      5-min Rain = 0
KDMS 142225Z 19021G26KT 02/00 A3009 RMK A01 T00170002  RH  091%=      5-min Rain = 0
KDMS 142230Z 19020G26KT 02/00 A3009 RMK A01 T00170001  RH  091%=      5-min Rain = 0
KDMS 142235Z 19019G25KT 02/00 A3009 RMK A01 T00170002  RH  091%=      5-min Rain = 0
KDMS 142240Z 19019G24KT 02/00 A3009 RMK A01 T00160001  RH  091%=      5-min Rain = 0
KDMS 142245Z 20018G23KT 02/00 A3009 RMK A01 T00170002  RH  091%=      5-min Rain = 0
KDMS 142250Z 19020KT 02/00 A3009 RMK A01 T00150001  RH  091%=      5-min Rain = 0
KDMS 142255Z 19020KT 01/00 A3009 RMK A01 T00140000  RH  091%=      5-min Rain = 0
KDMS 142300Z 19018KT 01/00 A3009 RMK A01 T00140001  RH  092%=      5-min Rain = 0
KDMS 142305Z 19017G22KT 02/00 A3009 RMK A01 T00150002  RH  092%=      5-min Rain = 0
KDMS 142310Z 19018G23KT 02/00 A3009 RMK A01 T00150002  RH  092%=      5-min Rain = 0
KDMS 142315Z 19018KT 01/00 A3008 RMK A01 T00140002  RH  092%=      5-min Rain = 0
KDMS 142320Z 19022KT 02/00 A3008 RMK A01 T00150002  RH  092%=      5-min Rain = 0
KDMS 142325Z 19021G26KT 01/00 A3008 RMK A01 T00140001  RH  092%=      5-min Rain = 0
KDMS 142330Z 19021G26KT 01/00 A3008 RMK A01 T00140001  RH  092%=      5-min Rain = 0
KDMS 142335Z 20020KT 01/00 A3008 RMK A01 T00130001  RH  092%=      5-min Rain = 0
KDMS 142340Z 20019KT 01/00 A3008 RMK A01 T00130000  RH  092%=      5-min Rain = 0
KDMS 142345Z 19018G23KT 01/00 A3008 RMK A01 T00140001  RH  092%=      5-min Rain = 0
KDMS 142350Z 19020G26KT 01/00 A3008 RMK A01 T00130001  RH  093%=      5-min Rain = 0
KDMS 142355Z 20019G24KT 01/00 A3008 RMK A01 T001200-0  RH  092%=      5-min Rain = 0
KDMS 150000Z 19016KT 01/00 A3008 RMK A01 T00130001  RH  093%=      5-min Rain = 0
KDMS 150005Z 19018KT 01/00 A3008 RMK A01 T00130002  RH  093%=      5-min Rain = 0
KDMS 150010Z 19017G22KT 01/00 A3008 RMK A01 T00120002  RH  094%=      5-min Rain = 0
KDMS 150015Z 19017G23KT 01/00 A3008 RMK A01 T00120001  RH  094%=      5-min Rain = 0
KDMS 150020Z 19018G24KT 01/00 A3008 RMK A01 T00110001  RH  094%=      5-min Rain = 0
KDMS 150025Z 18019KT 01/00 A3008 RMK A01 T00100001  RH  095%=      5-min Rain = 0
KDMS 150030Z 19022KT 01/00 A3008 RMK A01 T000900-0  RH  095%=      5-min Rain = 0
KDMS 150035Z 19020KT 01/M00 A3008 RMK A01 T00091001  RH  094%=      5-min Rain = 0
KDMS 150040Z 19020G25KT 01/M00 A3008 RMK A01 T00081001  RH  095%=      5-min Rain = 0
KDMS 150045Z 19020KT 01/00 A3008 RMK A01 T000800-0  RH  095%=      5-min Rain = 0
KDMS 150050Z 19019KT 01/00 A3008 RMK A01 T00080000  RH  096%=      5-min Rain = 0
KDMS 150055Z 19020G25KT 01/00 A3008 RMK A01 T00090001  RH  095%=      5-min Rain = 0
KDMS 150100Z 19021KT 01/00 A3008 RMK A01 T00080000  RH  095%=      5-min Rain = 0
KDMS 150105Z 19018KT 01/00 A3009 RMK A01 T00080000  RH  095%=      5-min Rain = 0
KDMS 150110Z 18020G26KT 01/00 A3008 RMK A01 T000800-0  RH  095%=      5-min Rain = 0
KDMS 150115Z 18021KT 01/M00 A3008 RMK A01 T00081001  RH  095%=      5-min Rain = 0
KDMS 150120Z 19021KT 01/M00 A3008 RMK A01 T00071001  RH  095%=      5-min Rain = 0
KDMS 150125Z 19019KT 01/M00 A3009 RMK A01 T00071002  RH  095%=      5-min Rain = 0
KDMS 150130Z 18019KT 01/M00 A3009 RMK A01 T00061002  RH  095%=      5-min Rain = 0
KDMS 150135Z 18019KT 01/M00 A3009 RMK A01 T00061001  RH  096%=      5-min Rain = 0
KDMS 150140Z 18019KT 01/M00 A3009 RMK A01 T00061001  RH  096%=      5-min Rain = 0
KDMS 150145Z 18020G25KT 01/00 A3009 RMK A01 T000700-0  RH  096%=      5-min Rain = 0
KDMS 150150Z 18019KT 01/M00 A3009 RMK A01 T00071001  RH  096%=      5-min Rain = 0
KDMS 150155Z 18019KT 01/00 A3009 RMK A01 T000700-0  RH  096%=      5-min Rain = 0
KDMS 150200Z 19020KT 01/00 A3009 RMK A01 T000700-0  RH  096%=      5-min Rain = 0
KDMS 150205Z 19018KT 01/00 A3009 RMK A01 T000800-0  RH  096%=      5-min Rain = 0
KDMS 150210Z 19019G24KT 01/00 A3009 RMK A01 T00080000  RH  096%=      5-min Rain = 0
KDMS 150215Z 19018KT 01/00 A301 RMK A01 T00080001  RH  096%=      5-min Rain = 0
KDMS 150220Z 19016KT 01/00 A301 RMK A01 T00080001  RH  096%=      5-min Rain = 0
KDMS 150225Z 19017KT 01/00 A301 RMK A01 T00080001  RH  096%=      5-min Rain = 0
KDMS 150230Z 19016KT 01/00 A301 RMK A01 T00070000  RH  096%=      5-min Rain = 0
KDMS 150235Z 19016G22KT 01/00 A301 RMK A01 T00060000  RH  097%=      5-min Rain = 0
KDMS 150240Z 19017KT 01/00 A301 RMK A01 T00060000  RH  097%=      5-min Rain = 0
KDMS 150245Z 19018G24KT 01/00 A301 RMK A01 T00060000  RH  097%=      5-min Rain = 0
KDMS 150250Z 19018G23KT 01/00 A301 RMK A01 T00060000  RH  097%=      5-min Rain = 0
KDMS 150255Z 19018G25KT 01/00 A301 RMK A01 T00050000  RH  098%=      5-min Rain = 0
KDMS 150300Z 19019KT 01/00 A301 RMK A01 T00050000  RH  098%=      5-min Rain = 0
KDMS 150305Z 19019KT 01/00 A301 RMK A01 T00050000  RH  098%=      5-min Rain = 0
KDMS 150310Z 19020G25KT 01/00 A301 RMK A01 T00050000  RH  098%=      5-min Rain = 0
KDMS 150315Z 20021KT 00/00 A301 RMK A01 T00040000  RH  098%=      5-min Rain = 0
KDMS 150320Z 20021KT 00/00 A301 RMK A01 T000300-0  RH  098%=      5-min Rain = 0
KDMS 150325Z 20018KT 00/00 A301 RMK A01 T000300-0  RH  099%=      5-min Rain = 0
KDMS 150330Z 20018KT 00/00 A301 RMK A01 T00040001  RH  099%=      5-min Rain = 0
KDMS 150335Z 20018G24KT 01/00 A301 RMK A01 T00060001  RH  098%=      5-min Rain = 0
KDMS 150340Z 21017KT 01/00 A301 RMK A01 T00080003  RH  098%=      5-min Rain = 0
KDMS 150345Z 21015G20KT 01/00 A301 RMK A01 T00090002  RH  096%=      5-min Rain = 0
KDMS 150350Z 21015KT 01/M00 A301 RMK A01 T00081001  RH  095%=      5-min Rain = 0
KDMS 150355Z 21015KT 01/M00 A301 RMK A01 T00071001  RH  096%=      5-min Rain = 0
KDMS 150400Z 21015KT 01/M00 A301 RMK A01 T00061002  RH  096%=      5-min Rain = 0
KDMS 150405Z 21015KT 01/M00 A301 RMK A01 T00061001  RH  096%=      5-min Rain = 0
KDMS 150410Z 21015KT 01/M00 A301 RMK A01 T00061002  RH  096%=      5-min Rain = 0
KDMS 150415Z 21016KT 01/M00 A3009 RMK A01 T00051002  RH  096%=      5-min Rain = 0
KDMS 150420Z 21014KT 01/M00 A3009 RMK A01 T00051003  RH  096%=      5-min Rain = 0
KDMS 150425Z 21015KT 01/M00 A3009 RMK A01 T00051002  RH  096%=      5-min Rain = 0
KDMS 150430Z 21015KT 01/M00 A3009 RMK A01 T00051002  RH  096%=      5-min Rain = 0
KDMS 150435Z 21015KT 01/M00 A3009 RMK A01 T00051003  RH  096%=      5-min Rain = 0
KDMS 150440Z 20015KT 00/M00 A3009 RMK A01 T00041003  RH  096%=      5-min Rain = 0
KDMS 150445Z 20016KT 00/M00 A3009 RMK A01 T00031004  RH  096%=      5-min Rain = 0
KDMS 150450Z 20016KT 00/M00 A3009 RMK A01 T00031004  RH  097%=      5-min Rain = 0
KDMS 150455Z 21016KT 00/M00 A3008 RMK A01 T00041002  RH  097%=      5-min Rain = 0
KDMS 150500Z 21016KT 01/M00 A3008 RMK A01 T00051002  RH  096%=      5-min Rain = 0
KDMS 150505Z 21017KT 01/M00 A3008 RMK A01 T00051002  RH  096%=      5-min Rain = 0
KDMS 150510Z 21017KT 01/M00 A3008 RMK A01 T00051002  RH  096%=      5-min Rain = 0
KDMS 150515Z 21017KT 01/M00 A3008 RMK A01 T00051002  RH  096%=      5-min Rain = 0
KDMS 150520Z 21015KT 00/M00 A3008 RMK A01 T00031004  RH  096%=      5-min Rain = 0
KDMS 150525Z 21014KT 00/M01 A3008 RMK A01 T00021005  RH  096%=      5-min Rain = 0
KDMS 150530Z 22013KT 00/01 A3008 RMK A01 T000000-6  RH  097%=      5-min Rain = 0
KDMS 150535Z 22013KT M00/M01 A3008 RMK A01 T10011007  RH  097%=      5-min Rain = 0
KDMS 150540Z 22013KT M00/M01 A3008 RMK A01 T10011007  RH  097%=      5-min Rain = 0
KDMS 150545Z 22014KT M00/M01 A3008 RMK A01 T10011005  RH  098%=      5-min Rain = 0
KDMS 150550Z 22014KT 00/M00 A3008 RMK A01 T00011004  RH  098%=      5-min Rain = 0
KDMS 150555Z 22015KT 00/M00 A3007 RMK A01 T00021003  RH  098%=      5-min Rain = 0

Page generated in 0.0139 seconds.